sensor_id;sensor_type;location;lat;lon;timestamp;P1;durP1;ratioP1;P2;durP2;ratioP2
2934;SDS011;2462;51.456;7.248;2022-09-24T00:01:27;11.50;;;6.23;;
2934;SDS011;2462;51.456;7.248;2022-09-24T00:03:59;10.10;;;6.60;;
2934;SDS011;2462;51.456;7.248;2022-09-24T00:06:27;10.73;;;7.32;;
2934;SDS011;2462;51.456;7.248;2022-09-24T00:08:54;13.20;;;7.63;;
2934;SDS011;2462;51.456;7.248;2022-09-24T00:11:25;12.18;;;7.68;;
2934;SDS011;2462;51.456;7.248;2022-09-24T00:13:53;10.60;;;7.60;;
2934;SDS011;2462;51.456;7.248;2022-09-24T00:16:20;13.57;;;8.82;;
2934;SDS011;2462;51.456;7.248;2022-09-24T00:18:47;15.02;;;8.25;;
2934;SDS011;2462;51.456;7.248;2022-09-24T00:21:14;11.68;;;7.93;;
2934;SDS011;2462;51.456;7.248;2022-09-24T00:23:52;12.57;;;8.30;;
2934;SDS011;2462;51.456;7.248;2022-09-24T00:26:19;12.80;;;8.48;;
2934;SDS011;2462;51.456;7.248;2022-09-24T00:29:05;12.40;;;9.40;;
2934;SDS011;2462;51.456;7.248;2022-09-24T00:31:31;12.00;;;8.15;;
2934;SDS011;2462;51.456;7.248;2022-09-24T00:33:57;11.20;;;8.30;;
2934;SDS011;2462;51.456;7.248;2022-09-24T00:36:23;11.05;;;8.50;;
2934;SDS011;2462;51.456;7.248;2022-09-24T00:38:53;14.38;;;8.82;;
2934;SDS011;2462;51.456;7.248;2022-09-24T00:41:20;10.88;;;9.02;;
2934;SDS011;2462;51.456;7.248;2022-09-24T00:43:48;13.43;;;9.30;;
2934;SDS011;2462;51.456;7.248;2022-09-24T00:48:57;11.25;;;8.93;;
2934;SDS011;2462;51.456;7.248;2022-09-24T00:51:30;13.40;;;8.68;;
2934;SDS011;2462;51.456;7.248;2022-09-24T00:54:00;12.70;;;9.15;;
2934;SDS011;2462;51.456;7.248;2022-09-24T00:56:31;12.20;;;8.70;;
2934;SDS011;2462;51.456;7.248;2022-09-24T00:59:00;12.13;;;9.43;;
2934;SDS011;2462;51.456;7.248;2022-09-24T01:01:28;12.75;;;9.95;;
2934;SDS011;2462;51.456;7.248;2022-09-24T01:03:55;14.80;;;10.77;;
2934;SDS011;2462;51.456;7.248;2022-09-24T01:06:22;11.63;;;9.55;;
2934;SDS011;2462;51.456;7.248;2022-09-24T01:08:49;13.43;;;10.18;;
2934;SDS011;2462;51.456;7.248;2022-09-24T01:11:21;12.40;;;9.88;;
2934;SDS011;2462;51.456;7.248;2022-09-24T01:25:06;12.23;;;10.00;;
2934;SDS011;2462;51.456;7.248;2022-09-24T01:28:08;13.38;;;10.20;;
2934;SDS011;2462;51.456;7.248;2022-09-24T01:31:01;12.45;;;10.13;;
2934;SDS011;2462;51.456;7.248;2022-09-24T01:33:32;12.43;;;10.23;;
2934;SDS011;2462;51.456;7.248;2022-09-24T01:36:01;13.50;;;11.07;;
2934;SDS011;2462;51.456;7.248;2022-09-24T01:38:33;15.07;;;12.23;;
2934;SDS011;2462;51.456;7.248;2022-09-24T01:41:03;13.33;;;11.53;;
2934;SDS011;2462;51.456;7.248;2022-09-24T01:43:31;15.45;;;11.90;;
2934;SDS011;2462;51.456;7.248;2022-09-24T01:45:57;13.55;;;11.45;;
2934;SDS011;2462;51.456;7.248;2022-09-24T01:48:26;13.82;;;11.25;;
2934;SDS011;2462;51.456;7.248;2022-09-24T01:53:42;16.15;;;12.85;;
2934;SDS011;2462;51.456;7.248;2022-09-24T01:56:41;16.83;;;12.30;;
2934;SDS011;2462;51.456;7.248;2022-09-24T01:59:21;15.97;;;12.30;;
2934;SDS011;2462;51.456;7.248;2022-09-24T02:02:06;16.13;;;12.25;;
2934;SDS011;2462;51.456;7.248;2022-09-24T02:04:45;16.52;;;11.63;;
2934;SDS011;2462;51.456;7.248;2022-09-24T02:07:17;15.88;;;12.50;;
2934;SDS011;2462;51.456;7.248;2022-09-24T02:09:49;13.23;;;11.65;;
2934;SDS011;2462;51.456;7.248;2022-09-24T02:12:16;15.10;;;11.57;;
2934;SDS011;2462;51.456;7.248;2022-09-24T02:17:35;16.17;;;12.23;;
2934;SDS011;2462;51.456;7.248;2022-09-24T02:20:04;15.32;;;11.95;;
2934;SDS011;2462;51.456;7.248;2022-09-24T02:22:36;16.25;;;12.80;;
2934;SDS011;2462;51.456;7.248;2022-09-24T02:25:03;17.27;;;13.50;;
2934;SDS011;2462;51.456;7.248;2022-09-24T02:27:31;14.50;;;12.10;;
2934;SDS011;2462;51.456;7.248;2022-09-24T02:29:57;16.27;;;13.20;;
2934;SDS011;2462;51.456;7.248;2022-09-24T02:32:24;20.48;;;13.95;;
2934;SDS011;2462;51.456;7.248;2022-09-24T02:34:55;21.33;;;14.00;;
2934;SDS011;2462;51.456;7.248;2022-09-24T02:37:26;16.85;;;14.23;;
2934;SDS011;2462;51.456;7.248;2022-09-24T02:39:53;19.77;;;14.23;;
2934;SDS011;2462;51.456;7.248;2022-09-24T02:42:18;18.10;;;14.40;;
2934;SDS011;2462;51.456;7.248;2022-09-24T02:44:45;20.02;;;14.20;;
2934;SDS011;2462;51.456;7.248;2022-09-24T02:47:11;19.65;;;15.30;;
2934;SDS011;2462;51.456;7.248;2022-09-24T02:49:37;17.65;;;13.82;;
2934;SDS011;2462;51.456;7.248;2022-09-24T02:52:02;16.45;;;13.13;;
2934;SDS011;2462;51.456;7.248;2022-09-24T02:54:28;18.48;;;14.45;;
2934;SDS011;2462;51.456;7.248;2022-09-24T02:56:55;22.88;;;14.98;;
2934;SDS011;2462;51.456;7.248;2022-09-24T02:59:21;22.00;;;17.02;;
2934;SDS011;2462;51.456;7.248;2022-09-24T03:01:46;19.83;;;17.27;;
2934;SDS011;2462;51.456;7.248;2022-09-24T03:04:12;19.30;;;15.80;;
2934;SDS011;2462;51.456;7.248;2022-09-24T03:06:38;19.30;;;16.33;;
2934;SDS011;2462;51.456;7.248;2022-09-24T03:09:04;20.73;;;16.97;;
2934;SDS011;2462;51.456;7.248;2022-09-24T03:11:29;22.00;;;17.77;;
2934;SDS011;2462;51.456;7.248;2022-09-24T03:13:56;21.80;;;17.92;;
2934;SDS011;2462;51.456;7.248;2022-09-24T03:16:21;25.20;;;17.40;;
2934;SDS011;2462;51.456;7.248;2022-09-24T03:18:47;22.13;;;17.60;;
2934;SDS011;2462;51.456;7.248;2022-09-24T03:21:14;22.02;;;17.08;;
2934;SDS011;2462;51.456;7.248;2022-09-24T03:23:42;23.23;;;19.10;;
2934;SDS011;2462;51.456;7.248;2022-09-24T03:26:08;21.38;;;17.30;;
2934;SDS011;2462;51.456;7.248;2022-09-24T03:28:34;23.48;;;18.05;;
2934;SDS011;2462;51.456;7.248;2022-09-24T03:30:59;22.27;;;16.83;;
2934;SDS011;2462;51.456;7.248;2022-09-24T03:33:26;21.63;;;16.80;;
2934;SDS011;2462;51.456;7.248;2022-09-24T03:36:03;21.20;;;17.58;;
2934;SDS011;2462;51.456;7.248;2022-09-24T03:38:31;22.65;;;16.15;;
2934;SDS011;2462;51.456;7.248;2022-09-24T03:40:58;19.98;;;17.33;;
2934;SDS011;2462;51.456;7.248;2022-09-24T03:43:24;23.75;;;17.50;;
2934;SDS011;2462;51.456;7.248;2022-09-24T03:45:51;20.30;;;16.63;;
2934;SDS011;2462;51.456;7.248;2022-09-24T03:48:17;21.70;;;17.10;;
2934;SDS011;2462;51.456;7.248;2022-09-24T03:50:44;21.48;;;17.48;;
2934;SDS011;2462;51.456;7.248;2022-09-24T03:53:10;22.87;;;17.47;;
2934;SDS011;2462;51.456;7.248;2022-09-24T03:55:41;23.05;;;18.30;;
2934;SDS011;2462;51.456;7.248;2022-09-24T03:58:12;22.57;;;16.87;;
2934;SDS011;2462;51.456;7.248;2022-09-24T04:00:39;23.88;;;16.38;;
2934;SDS011;2462;51.456;7.248;2022-09-24T04:03:05;20.20;;;16.67;;
2934;SDS011;2462;51.456;7.248;2022-09-24T04:05:30;22.45;;;16.00;;
2934;SDS011;2462;51.456;7.248;2022-09-24T04:07:59;23.60;;;17.10;;
2934;SDS011;2462;51.456;7.248;2022-09-24T04:10:26;21.65;;;15.57;;
2934;SDS011;2462;51.456;7.248;2022-09-24T04:12:52;19.55;;;16.00;;
2934;SDS011;2462;51.456;7.248;2022-09-24T04:15:18;18.60;;;15.03;;
2934;SDS011;2462;51.456;7.248;2022-09-24T04:17:54;19.75;;;15.57;;
2934;SDS011;2462;51.456;7.248;2022-09-24T04:20:24;20.35;;;14.85;;
2934;SDS011;2462;51.456;7.248;2022-09-24T04:22:52;17.85;;;14.60;;
2934;SDS011;2462;51.456;7.248;2022-09-24T04:25:19;17.65;;;13.90;;
2934;SDS011;2462;51.456;7.248;2022-09-24T04:27:51;20.02;;;15.52;;
2934;SDS011;2462;51.456;7.248;2022-09-24T04:30:21;16.50;;;13.95;;
2934;SDS011;2462;51.456;7.248;2022-09-24T04:32:48;17.65;;;14.45;;
2934;SDS011;2462;51.456;7.248;2022-09-24T04:35:15;20.10;;;14.90;;
2934;SDS011;2462;51.456;7.248;2022-09-24T04:37:45;18.10;;;14.95;;
2934;SDS011;2462;51.456;7.248;2022-09-24T04:40:11;16.33;;;13.68;;
2934;SDS011;2462;51.456;7.248;2022-09-24T04:42:37;18.00;;;14.68;;
2934;SDS011;2462;51.456;7.248;2022-09-24T04:45:07;16.63;;;14.30;;
2934;SDS011;2462;51.456;7.248;2022-09-24T04:47:34;19.73;;;13.65;;
2934;SDS011;2462;51.456;7.248;2022-09-24T04:50:01;20.88;;;14.10;;
2934;SDS011;2462;51.456;7.248;2022-09-24T04:54:55;17.45;;;12.85;;
2934;SDS011;2462;51.456;7.248;2022-09-24T04:57:22;21.17;;;13.80;;
2934;SDS011;2462;51.456;7.248;2022-09-24T04:59:48;18.55;;;12.07;;
2934;SDS011;2462;51.456;7.248;2022-09-24T05:02:13;19.40;;;12.40;;
2934;SDS011;2462;51.456;7.248;2022-09-24T05:04:39;16.40;;;12.52;;
2934;SDS011;2462;51.456;7.248;2022-09-24T05:07:05;16.80;;;12.20;;
2934;SDS011;2462;51.456;7.248;2022-09-24T05:09:30;18.67;;;13.05;;
2934;SDS011;2462;51.456;7.248;2022-09-24T05:11:56;16.40;;;13.10;;
2934;SDS011;2462;51.456;7.248;2022-09-24T05:14:23;18.20;;;12.50;;
2934;SDS011;2462;51.456;7.248;2022-09-24T05:16:49;15.93;;;11.70;;
2934;SDS011;2462;51.456;7.248;2022-09-24T05:19:14;15.97;;;12.63;;
2934;SDS011;2462;51.456;7.248;2022-09-24T05:21:40;16.90;;;13.48;;
2934;SDS011;2462;51.456;7.248;2022-09-24T05:24:05;17.70;;;12.60;;
2934;SDS011;2462;51.456;7.248;2022-09-24T05:26:31;18.55;;;12.82;;
2934;SDS011;2462;51.456;7.248;2022-09-24T05:29:15;17.38;;;12.27;;
2934;SDS011;2462;51.456;7.248;2022-09-24T05:31:41;15.63;;;11.80;;
2934;SDS011;2462;51.456;7.248;2022-09-24T05:34:06;17.92;;;12.48;;
2934;SDS011;2462;51.456;7.248;2022-09-24T05:36:32;15.40;;;11.85;;
2934;SDS011;2462;51.456;7.248;2022-09-24T05:38:57;16.03;;;11.77;;
2934;SDS011;2462;51.456;7.248;2022-09-24T05:41:23;18.00;;;12.00;;
2934;SDS011;2462;51.456;7.248;2022-09-24T05:43:48;14.30;;;11.20;;
2934;SDS011;2462;51.456;7.248;2022-09-24T05:46:14;15.13;;;12.20;;
2934;SDS011;2462;51.456;7.248;2022-09-24T05:48:40;16.30;;;12.90;;
2934;SDS011;2462;51.456;7.248;2022-09-24T05:51:05;14.20;;;11.20;;
2934;SDS011;2462;51.456;7.248;2022-09-24T05:53:31;15.00;;;11.10;;
2934;SDS011;2462;51.456;7.248;2022-09-24T05:55:57;16.42;;;11.20;;
2934;SDS011;2462;51.456;7.248;2022-09-24T05:58:23;14.82;;;11.50;;
2934;SDS011;2462;51.456;7.248;2022-09-24T06:00:49;14.75;;;11.50;;
2934;SDS011;2462;51.456;7.248;2022-09-24T06:03:15;13.68;;;10.80;;
2934;SDS011;2462;51.456;7.248;2022-09-24T06:05:43;14.40;;;11.68;;
2934;SDS011;2462;51.456;7.248;2022-09-24T06:08:10;18.40;;;11.32;;
2934;SDS011;2462;51.456;7.248;2022-09-24T06:10:36;19.83;;;11.30;;
2934;SDS011;2462;51.456;7.248;2022-09-24T06:13:02;13.68;;;10.32;;
2934;SDS011;2462;51.456;7.248;2022-09-24T06:15:28;12.63;;;10.30;;
2934;SDS011;2462;51.456;7.248;2022-09-24T06:17:55;15.38;;;10.90;;
2934;SDS011;2462;51.456;7.248;2022-09-24T06:20:21;13.93;;;10.80;;
2934;SDS011;2462;51.456;7.248;2022-09-24T06:22:46;12.93;;;11.00;;
2934;SDS011;2462;51.456;7.248;2022-09-24T06:25:12;12.93;;;10.87;;
2934;SDS011;2462;51.456;7.248;2022-09-24T06:27:38;14.47;;;10.63;;
2934;SDS011;2462;51.456;7.248;2022-09-24T06:30:04;17.13;;;10.93;;
2934;SDS011;2462;51.456;7.248;2022-09-24T06:32:30;18.10;;;11.20;;
2934;SDS011;2462;51.456;7.248;2022-09-24T06:34:55;12.40;;;10.38;;
2934;SDS011;2462;51.456;7.248;2022-09-24T06:37:21;12.75;;;10.73;;
2934;SDS011;2462;51.456;7.248;2022-09-24T06:39:47;14.37;;;11.20;;
2934;SDS011;2462;51.456;7.248;2022-09-24T06:42:12;13.90;;;10.67;;
2934;SDS011;2462;51.456;7.248;2022-09-24T06:44:38;15.00;;;11.23;;
2934;SDS011;2462;51.456;7.248;2022-09-24T06:47:03;15.60;;;10.80;;
2934;SDS011;2462;51.456;7.248;2022-09-24T06:49:29;14.98;;;10.50;;
2934;SDS011;2462;51.456;7.248;2022-09-24T06:51:55;12.00;;;9.93;;
2934;SDS011;2462;51.456;7.248;2022-09-24T06:54:22;13.52;;;10.55;;
2934;SDS011;2462;51.456;7.248;2022-09-24T06:56:48;16.23;;;10.93;;
2934;SDS011;2462;51.456;7.248;2022-09-24T06:59:16;15.82;;;11.10;;
2934;SDS011;2462;51.456;7.248;2022-09-24T07:01:42;16.13;;;11.43;;
2934;SDS011;2462;51.456;7.248;2022-09-24T07:04:07;15.17;;;10.70;;
2934;SDS011;2462;51.456;7.248;2022-09-24T07:06:33;13.70;;;11.18;;
2934;SDS011;2462;51.456;7.248;2022-09-24T07:09:17;15.93;;;11.20;;
2934;SDS011;2462;51.456;7.248;2022-09-24T07:11:43;13.70;;;10.87;;
2934;SDS011;2462;51.456;7.248;2022-09-24T07:14:10;12.80;;;10.07;;
2934;SDS011;2462;51.456;7.248;2022-09-24T07:16:39;13.68;;;10.38;;
2934;SDS011;2462;51.456;7.248;2022-09-24T07:19:04;12.40;;;10.45;;
2934;SDS011;2462;51.456;7.248;2022-09-24T07:21:30;13.85;;;11.07;;
2934;SDS011;2462;51.456;7.248;2022-09-24T07:23:55;14.37;;;10.70;;
2934;SDS011;2462;51.456;7.248;2022-09-24T07:26:21;14.50;;;11.60;;
2934;SDS011;2462;51.456;7.248;2022-09-24T07:28:47;15.20;;;10.30;;
2934;SDS011;2462;51.456;7.248;2022-09-24T07:31:12;13.35;;;10.43;;
2934;SDS011;2462;51.456;7.248;2022-09-24T07:33:38;16.13;;;10.85;;
2934;SDS011;2462;51.456;7.248;2022-09-24T07:36:04;13.75;;;10.93;;
2934;SDS011;2462;51.456;7.248;2022-09-24T07:38:33;14.20;;;11.02;;
2934;SDS011;2462;51.456;7.248;2022-09-24T07:41:00;15.20;;;11.23;;
2934;SDS011;2462;51.456;7.248;2022-09-24T07:43:30;15.32;;;10.90;;
2934;SDS011;2462;51.456;7.248;2022-09-24T07:45:57;14.73;;;10.85;;
2934;SDS011;2462;51.456;7.248;2022-09-24T07:48:22;14.80;;;11.20;;
2934;SDS011;2462;51.456;7.248;2022-09-24T07:50:48;14.75;;;11.05;;
2934;SDS011;2462;51.456;7.248;2022-09-24T07:53:15;13.52;;;10.13;;
2934;SDS011;2462;51.456;7.248;2022-09-24T07:55:40;16.23;;;11.15;;
2934;SDS011;2462;51.456;7.248;2022-09-24T07:58:07;13.73;;;10.68;;
2934;SDS011;2462;51.456;7.248;2022-09-24T08:00:36;16.48;;;11.30;;
2934;SDS011;2462;51.456;7.248;2022-09-24T08:03:02;13.77;;;11.33;;
2934;SDS011;2462;51.456;7.248;2022-09-24T08:05:28;16.92;;;12.38;;
2934;SDS011;2462;51.456;7.248;2022-09-24T08:07:54;16.20;;;11.30;;
2934;SDS011;2462;51.456;7.248;2022-09-24T08:10:21;15.68;;;11.48;;
2934;SDS011;2462;51.456;7.248;2022-09-24T08:12:48;16.90;;;11.82;;
2934;SDS011;2462;51.456;7.248;2022-09-24T08:15:13;13.70;;;9.60;;
2934;SDS011;2462;51.456;7.248;2022-09-24T08:17:39;13.77;;;10.57;;
2934;SDS011;2462;51.456;7.248;2022-09-24T08:20:05;12.30;;;9.80;;
2934;SDS011;2462;51.456;7.248;2022-09-24T08:22:32;13.95;;;11.18;;
2934;SDS011;2462;51.456;7.248;2022-09-24T08:24:57;23.02;;;16.15;;
2934;SDS011;2462;51.456;7.248;2022-09-24T08:27:23;35.55;;;27.65;;
2934;SDS011;2462;51.456;7.248;2022-09-24T08:29:49;31.48;;;24.15;;
2934;SDS011;2462;51.456;7.248;2022-09-24T08:32:15;26.52;;;21.00;;
2934;SDS011;2462;51.456;7.248;2022-09-24T08:34:41;22.98;;;17.58;;
2934;SDS011;2462;51.456;7.248;2022-09-24T08:37:07;18.97;;;14.90;;
2934;SDS011;2462;51.456;7.248;2022-09-24T08:39:33;18.10;;;13.97;;
2934;SDS011;2462;51.456;7.248;2022-09-24T08:42:00;15.77;;;12.60;;
2934;SDS011;2462;51.456;7.248;2022-09-24T08:44:38;15.18;;;11.55;;
2934;SDS011;2462;51.456;7.248;2022-09-24T08:52:54;15.98;;;11.07;;
2934;SDS011;2462;51.456;7.248;2022-09-24T09:00:44;14.98;;;10.40;;
2934;SDS011;2462;51.456;7.248;2022-09-24T09:03:19;13.18;;;10.38;;
2934;SDS011;2462;51.456;7.248;2022-09-24T09:05:52;13.43;;;9.95;;
2934;SDS011;2462;51.456;7.248;2022-09-24T09:11:22;14.35;;;11.35;;
2934;SDS011;2462;51.456;7.248;2022-09-24T09:13:53;12.95;;;10.93;;
2934;SDS011;2462;51.456;7.248;2022-09-24T09:19:20;17.93;;;11.27;;
2934;SDS011;2462;51.456;7.248;2022-09-24T09:24:46;15.10;;;10.60;;
2934;SDS011;2462;51.456;7.248;2022-09-24T09:27:13;13.50;;;10.32;;
2934;SDS011;2462;51.456;7.248;2022-09-24T09:29:41;14.48;;;10.95;;
2934;SDS011;2462;51.456;7.248;2022-09-24T09:35:16;14.25;;;9.82;;
2934;SDS011;2462;51.456;7.248;2022-09-24T09:37:56;12.05;;;9.85;;
2934;SDS011;2462;51.456;7.248;2022-09-24T09:43:30;12.57;;;9.65;;
2934;SDS011;2462;51.456;7.248;2022-09-24T09:48:37;15.57;;;9.55;;
2934;SDS011;2462;51.456;7.248;2022-09-24T09:51:08;11.80;;;9.23;;
2934;SDS011;2462;51.456;7.248;2022-09-24T09:53:52;12.13;;;9.10;;
2934;SDS011;2462;51.456;7.248;2022-09-24T09:56:26;11.60;;;9.18;;
2934;SDS011;2462;51.456;7.248;2022-09-24T09:59:01;11.45;;;9.25;;
2934;SDS011;2462;51.456;7.248;2022-09-24T10:01:31;12.27;;;9.13;;
2934;SDS011;2462;51.456;7.248;2022-09-24T10:03:58;12.68;;;9.30;;
2934;SDS011;2462;51.456;7.248;2022-09-24T10:06:32;11.13;;;8.20;;
2934;SDS011;2462;51.456;7.248;2022-09-24T10:09:06;10.10;;;7.87;;
2934;SDS011;2462;51.456;7.248;2022-09-24T10:11:32;9.60;;;7.90;;
2934;SDS011;2462;51.456;7.248;2022-09-24T10:14:04;12.30;;;8.13;;
2934;SDS011;2462;51.456;7.248;2022-09-24T10:16:37;11.63;;;7.95;;
2934;SDS011;2462;51.456;7.248;2022-09-24T10:19:11;10.13;;;8.23;;
2934;SDS011;2462;51.456;7.248;2022-09-24T10:21:46;10.82;;;7.78;;
2934;SDS011;2462;51.456;7.248;2022-09-24T10:24:14;11.57;;;8.30;;
2934;SDS011;2462;51.456;7.248;2022-09-24T10:26:51;10.73;;;8.00;;
2934;SDS011;2462;51.456;7.248;2022-09-24T10:29:18;10.40;;;8.00;;
2934;SDS011;2462;51.456;7.248;2022-09-24T10:32:26;9.13;;;7.13;;
2934;SDS011;2462;51.456;7.248;2022-09-24T10:34:54;9.50;;;7.80;;
2934;SDS011;2462;51.456;7.248;2022-09-24T10:37:24;9.65;;;7.97;;
2934;SDS011;2462;51.456;7.248;2022-09-24T10:40:00;9.90;;;7.72;;
2934;SDS011;2462;51.456;7.248;2022-09-24T10:42:39;10.13;;;7.82;;
2934;SDS011;2462;51.456;7.248;2022-09-24T10:45:05;8.80;;;7.00;;
2934;SDS011;2462;51.456;7.248;2022-09-24T10:47:39;9.40;;;6.72;;
2934;SDS011;2462;51.456;7.248;2022-09-24T10:53:29;9.27;;;6.18;;
2934;SDS011;2462;51.456;7.248;2022-09-24T10:56:47;8.68;;;6.55;;
2934;SDS011;2462;51.456;7.248;2022-09-24T11:01:41;7.95;;;6.53;;
2934;SDS011;2462;51.456;7.248;2022-09-24T11:12:38;9.20;;;6.70;;
2934;SDS011;2462;51.456;7.248;2022-09-24T11:18:01;10.32;;;7.32;;
2934;SDS011;2462;51.456;7.248;2022-09-24T11:34:46;10.77;;;8.10;;
2934;SDS011;2462;51.456;7.248;2022-09-24T11:37:28;8.95;;;7.60;;
2934;SDS011;2462;51.456;7.248;2022-09-24T11:40:25;10.18;;;8.07;;
2934;SDS011;2462;51.456;7.248;2022-09-24T11:49:22;10.63;;;7.80;;
2934;SDS011;2462;51.456;7.248;2022-09-24T11:54:51;10.82;;;8.60;;
2934;SDS011;2462;51.456;7.248;2022-09-24T11:57:24;11.00;;;8.80;;
2934;SDS011;2462;51.456;7.248;2022-09-24T12:00:04;11.23;;;9.00;;
2934;SDS011;2462;51.456;7.248;2022-09-24T12:02:36;10.90;;;9.27;;
2934;SDS011;2462;51.456;7.248;2022-09-24T12:07:46;11.25;;;9.18;;
2934;SDS011;2462;51.456;7.248;2022-09-24T12:10:29;10.68;;;8.52;;
2934;SDS011;2462;51.456;7.248;2022-09-24T12:16:12;12.73;;;9.13;;
2934;SDS011;2462;51.456;7.248;2022-09-24T12:18:45;11.48;;;9.55;;
2934;SDS011;2462;51.456;7.248;2022-09-24T12:21:18;11.30;;;10.10;;
2934;SDS011;2462;51.456;7.248;2022-09-24T12:23:50;12.57;;;10.30;;
2934;SDS011;2462;51.456;7.248;2022-09-24T12:26:18;10.07;;;9.00;;
2934;SDS011;2462;51.456;7.248;2022-09-24T12:35:25;11.23;;;9.93;;
2934;SDS011;2462;51.456;7.248;2022-09-24T12:37:41;11.80;;;9.57;;
2934;SDS011;2462;51.456;7.248;2022-09-24T12:40:25;12.00;;;9.45;;
2934;SDS011;2462;51.456;7.248;2022-09-24T12:42:59;12.70;;;10.32;;
2934;SDS011;2462;51.456;7.248;2022-09-24T12:45:26;10.43;;;8.88;;
2934;SDS011;2462;51.456;7.248;2022-09-24T12:47:54;12.25;;;9.65;;
2934;SDS011;2462;51.456;7.248;2022-09-24T12:50:28;10.85;;;9.30;;
2934;SDS011;2462;51.456;7.248;2022-09-24T12:52:56;12.75;;;8.70;;
2934;SDS011;2462;51.456;7.248;2022-09-24T12:55:29;11.77;;;9.00;;
2934;SDS011;2462;51.456;7.248;2022-09-24T12:57:59;11.48;;;8.93;;
2934;SDS011;2462;51.456;7.248;2022-09-24T13:00:44;11.82;;;9.05;;
2934;SDS011;2462;51.456;7.248;2022-09-24T13:06:20;11.73;;;9.00;;
2934;SDS011;2462;51.456;7.248;2022-09-24T13:08:54;11.43;;;9.10;;
2934;SDS011;2462;51.456;7.248;2022-09-24T13:11:32;11.53;;;9.50;;
2934;SDS011;2462;51.456;7.248;2022-09-24T13:14:04;12.33;;;10.80;;
2934;SDS011;2462;51.456;7.248;2022-09-24T13:16:47;12.68;;;9.77;;
2934;SDS011;2462;51.456;7.248;2022-09-24T13:19:32;11.68;;;9.57;;
2934;SDS011;2462;51.456;7.248;2022-09-24T13:22:15;10.93;;;9.63;;
2934;SDS011;2462;51.456;7.248;2022-09-24T13:25:04;13.00;;;10.13;;
2934;SDS011;2462;51.456;7.248;2022-09-24T13:27:34;12.90;;;9.90;;
2934;SDS011;2462;51.456;7.248;2022-09-24T13:32:35;11.82;;;9.48;;
2934;SDS011;2462;51.456;7.248;2022-09-24T13:35:21;13.82;;;9.57;;
2934;SDS011;2462;51.456;7.248;2022-09-24T13:38:00;12.15;;;10.60;;
2934;SDS011;2462;51.456;7.248;2022-09-24T13:40:32;13.85;;;10.90;;
2934;SDS011;2462;51.456;7.248;2022-09-24T13:43:16;14.45;;;11.20;;
2934;SDS011;2462;51.456;7.248;2022-09-24T13:45:49;13.75;;;12.00;;
2934;SDS011;2462;51.456;7.248;2022-09-24T13:48:17;14.55;;;12.40;;
2934;SDS011;2462;51.456;7.248;2022-09-24T13:50:49;15.30;;;12.20;;
2934;SDS011;2462;51.456;7.248;2022-09-24T13:53:17;17.00;;;11.98;;
2934;SDS011;2462;51.456;7.248;2022-09-24T13:55:59;13.90;;;11.27;;
2934;SDS011;2462;51.456;7.248;2022-09-24T13:58:29;15.60;;;11.80;;
2934;SDS011;2462;51.456;7.248;2022-09-24T14:01:00;12.80;;;11.50;;
2934;SDS011;2462;51.456;7.248;2022-09-24T14:03:28;14.27;;;11.85;;
2934;SDS011;2462;51.456;7.248;2022-09-24T14:05:59;13.90;;;12.23;;
2934;SDS011;2462;51.456;7.248;2022-09-24T14:08:26;13.75;;;12.02;;
2934;SDS011;2462;51.456;7.248;2022-09-24T14:13:43;15.17;;;12.53;;
2934;SDS011;2462;51.456;7.248;2022-09-24T14:16:13;16.67;;;12.50;;
2934;SDS011;2462;51.456;7.248;2022-09-24T14:18:40;15.00;;;12.20;;
2934;SDS011;2462;51.456;7.248;2022-09-24T14:21:07;13.97;;;11.50;;
2934;SDS011;2462;51.456;7.248;2022-09-24T14:26:19;14.15;;;11.70;;
2934;SDS011;2462;51.456;7.248;2022-09-24T14:28:56;15.65;;;12.70;;
2934;SDS011;2462;51.456;7.248;2022-09-24T14:31:24;15.57;;;12.23;;
2934;SDS011;2462;51.456;7.248;2022-09-24T14:33:49;14.00;;;12.40;;
2934;SDS011;2462;51.456;7.248;2022-09-24T14:36:16;15.00;;;12.27;;
2934;SDS011;2462;51.456;7.248;2022-09-24T14:38:49;14.13;;;11.55;;
2934;SDS011;2462;51.456;7.248;2022-09-24T14:41:21;12.85;;;11.02;;
2934;SDS011;2462;51.456;7.248;2022-09-24T14:43:52;15.55;;;11.60;;
2934;SDS011;2462;51.456;7.248;2022-09-24T14:46:27;11.82;;;10.50;;
2934;SDS011;2462;51.456;7.248;2022-09-24T14:49:17;12.75;;;10.40;;
2934;SDS011;2462;51.456;7.248;2022-09-24T14:52:20;12.95;;;10.60;;
2934;SDS011;2462;51.456;7.248;2022-09-24T14:55:14;13.00;;;11.60;;
2934;SDS011;2462;51.456;7.248;2022-09-24T14:57:42;14.10;;;11.00;;
2934;SDS011;2462;51.456;7.248;2022-09-24T15:00:23;12.85;;;11.55;;
2934;SDS011;2462;51.456;7.248;2022-09-24T15:02:58;13.55;;;11.10;;
2934;SDS011;2462;51.456;7.248;2022-09-24T15:05:30;12.60;;;11.30;;
2934;SDS011;2462;51.456;7.248;2022-09-24T15:10:36;14.82;;;11.50;;
2934;SDS011;2462;51.456;7.248;2022-09-24T15:13:13;14.10;;;11.70;;
2934;SDS011;2462;51.456;7.248;2022-09-24T15:15:42;14.00;;;11.88;;
2934;SDS011;2462;51.456;7.248;2022-09-24T15:18:09;13.70;;;11.50;;
2934;SDS011;2462;51.456;7.248;2022-09-24T15:20:35;14.25;;;12.18;;
2934;SDS011;2462;51.456;7.248;2022-09-24T15:23:01;13.65;;;11.23;;
2934;SDS011;2462;51.456;7.248;2022-09-24T15:25:27;13.50;;;12.10;;
2934;SDS011;2462;51.456;7.248;2022-09-24T15:27:53;14.07;;;12.13;;
2934;SDS011;2462;51.456;7.248;2022-09-24T15:30:19;14.38;;;12.88;;
2934;SDS011;2462;51.456;7.248;2022-09-24T15:32:45;14.02;;;12.20;;
2934;SDS011;2462;51.456;7.248;2022-09-24T15:35:13;14.20;;;12.40;;
2934;SDS011;2462;51.456;7.248;2022-09-24T15:37:39;13.20;;;11.80;;
2934;SDS011;2462;51.456;7.248;2022-09-24T15:40:14;12.88;;;11.20;;
2934;SDS011;2462;51.456;7.248;2022-09-24T15:42:40;13.68;;;12.00;;
2934;SDS011;2462;51.456;7.248;2022-09-24T15:45:14;13.63;;;12.13;;
2934;SDS011;2462;51.456;7.248;2022-09-24T15:47:45;14.77;;;12.75;;
2934;SDS011;2462;51.456;7.248;2022-09-24T15:50:11;14.70;;;13.07;;
2934;SDS011;2462;51.456;7.248;2022-09-24T15:55:15;13.88;;;12.00;;
2934;SDS011;2462;51.456;7.248;2022-09-24T15:57:43;15.15;;;13.00;;
2934;SDS011;2462;51.456;7.248;2022-09-24T16:00:19;17.17;;;13.10;;
2934;SDS011;2462;51.456;7.248;2022-09-24T16:02:48;14.98;;;12.10;;
2934;SDS011;2462;51.456;7.248;2022-09-24T16:05:16;15.50;;;12.30;;
2934;SDS011;2462;51.456;7.248;2022-09-24T16:07:42;15.45;;;13.27;;
2934;SDS011;2462;51.456;7.248;2022-09-24T16:10:08;14.27;;;12.77;;
2934;SDS011;2462;51.456;7.248;2022-09-24T16:12:35;17.53;;;13.53;;
2934;SDS011;2462;51.456;7.248;2022-09-24T16:15:01;15.48;;;13.30;;
2934;SDS011;2462;51.456;7.248;2022-09-24T16:17:27;15.35;;;13.20;;
2934;SDS011;2462;51.456;7.248;2022-09-24T16:19:53;14.20;;;12.23;;
2934;SDS011;2462;51.456;7.248;2022-09-24T16:22:18;15.55;;;11.82;;
2934;SDS011;2462;51.456;7.248;2022-09-24T16:24:44;13.65;;;11.48;;
2934;SDS011;2462;51.456;7.248;2022-09-24T16:27:10;14.65;;;11.80;;
2934;SDS011;2462;51.456;7.248;2022-09-24T16:29:35;14.30;;;11.73;;
2934;SDS011;2462;51.456;7.248;2022-09-24T16:32:01;12.57;;;11.10;;
2934;SDS011;2462;51.456;7.248;2022-09-24T16:34:27;13.20;;;11.37;;
2934;SDS011;2462;51.456;7.248;2022-09-24T16:36:53;12.93;;;10.25;;
2934;SDS011;2462;51.456;7.248;2022-09-24T16:39:19;13.65;;;11.60;;
2934;SDS011;2462;51.456;7.248;2022-09-24T16:41:50;11.45;;;10.25;;
2934;SDS011;2462;51.456;7.248;2022-09-24T16:44:16;11.80;;;10.33;;
2934;SDS011;2462;51.456;7.248;2022-09-24T16:46:42;15.52;;;13.90;;
2934;SDS011;2462;51.456;7.248;2022-09-24T16:49:08;20.52;;;16.35;;
2934;SDS011;2462;51.456;7.248;2022-09-24T16:51:35;16.93;;;14.17;;
2934;SDS011;2462;51.456;7.248;2022-09-24T16:54:01;16.27;;;12.88;;
2934;SDS011;2462;51.456;7.248;2022-09-24T16:56:29;12.77;;;11.00;;
2934;SDS011;2462;51.456;7.248;2022-09-24T16:58:55;13.40;;;11.10;;
2934;SDS011;2462;51.456;7.248;2022-09-24T17:01:21;13.50;;;11.10;;
2934;SDS011;2462;51.456;7.248;2022-09-24T17:03:53;12.67;;;10.00;;
2934;SDS011;2462;51.456;7.248;2022-09-24T17:06:20;12.00;;;10.00;;
2934;SDS011;2462;51.456;7.248;2022-09-24T17:08:47;12.85;;;9.52;;